NCAR-RAP Real-Time Weather Data

Output produced by METARs form (19 June 2019  10:40 UTC)
found at http://weather.rap.ucar.edu/surface/
 
KWAL 190954Z AUTO 17005KT 10SM FEW120 23/22 A2987 RMK AO2 SLP111 T02330217
KWAL 190854Z AUTO 17004KT 10SM FEW034 23/22 A2987 RMK AO2 SLP112 60000 T02330217 56017
KWAL 190754Z AUTO 00000KT 10SM CLR 24/21 A2987 RMK AO2 SLP113 T02390211
KWAL 190654Z AUTO 00000KT 10SM CLR 24/21 A2989 RMK AO2 RAB09E49 SLP119 P0000 T02390211
KWAL 190554Z AUTO 23004KT 10SM FEW110 24/21 A2992 RMK AO2 SLP129 60001 T02390211 10272 20233 58004
KWAL 190454Z AUTO 21004KT 10SM SCT040 24/21 A2994 RMK AO2 SLP136 T02390211 403170228
KWAL 190354Z AUTO 24004KT 10SM CLR 24/21 A2993 RMK AO2 RAB01E20 SLP132 P0000 T02390211
KWAL 190254Z AUTO 23003KT 10SM CLR 24/22 A2993 RMK AO2 LTG DSNT SE RAB27E35 SLP133 P0000 60001 T02390217 51011
KWAL 190154Z AUTO 28006KT 10SM FEW110 25/22 A2992 RMK AO2 LTG DSNT S RAE17B39E52 SLP130 P0000 T02500222
KWAL 190054Z AUTO 28007KT 10SM -RA CLR 25/21 A2991 RMK AO2 SLP125 P0001 T02500211
KWAL 182354Z AUTO 23009G17KT 10SM -RA CLR 27/21 A2990 RMK AO2 RAB19 SLP122 P0000 60000 T02720211 10317 20272 53001
KWAL 182254Z AUTO 23005KT 10SM FEW080 29/21 A2990 RMK AO2 LTG DSNT S AND SW SLP121 T02940211
KWAL 182154Z AUTO 23005KT 10SM CLR 30/21 A2989 RMK AO2 SLP119 T03000211
KWAL 182054Z 23008KT 10SM CLR 31/21 A2990 RMK AO2 SLP121 T03110211 56013
KWAL 181954Z 25011KT 10SM CLR 31/21 A2990 RMK AO2 SLP123 T03060206
KWAL 181854Z 24011KT 10SM FEW040 SCT110 BKN180 BKN250 31/21 A2992 RMK AO2 SLP128 T03110206
KWAL 181754Z 25013G20KT 10SM FEW030 FEW090 SCT110 BKN180 OVC250 30/20 A2993 RMK AO2 SLP133 T03000200 10311 20267 58007
KWAL 181654Z 24007KT 10SM FEW030 BKN090 BKN110 BKN150 BKN250 29/21 A2995 RMK AO2 SLP137 T02940206
KWAL 181554Z VRB04KT 10SM FEW030 BKN090 BKN120 BKN150 BKN250 30/21 A2995 RMK AO2 SLP139 T03000211
KWAL 181454Z 27007KT 240V310 10SM BKN085 BKN110 BKN250 31/19 A2995 RMK AO2 SLP140 T03060194 55002
KWAL 181354Z 23012KT 10SM FEW095 BKN120 BKN250 30/21 A2995 RMK AO2 SLP139 T03000206
KWAL 181254Z 23006KT 10SM FEW200 BKN250 28/21 A2996 RMK AO2 SLP142 T02830211